sensor_id;sensor_type;location;lat;lon;timestamp;temperature;humidity
78461;SHT31;67755;51.986;5.696;2023-04-24T00:02:13;13.9;66.4
78461;SHT31;67755;51.986;5.696;2023-04-24T00:04:43;13.9;66.4
78461;SHT31;67755;51.986;5.696;2023-04-24T00:07:13;13.9;66.1
78461;SHT31;67755;51.986;5.696;2023-04-24T00:09:44;13.9;65.9
78461;SHT31;67755;51.986;5.696;2023-04-24T00:12:15;13.9;65.9
78461;SHT31;67755;51.986;5.696;2023-04-24T00:14:45;13.9;66.0
78461;SHT31;67755;51.986;5.696;2023-04-24T00:17:15;13.9;65.5
78461;SHT31;67755;51.986;5.696;2023-04-24T00:19:47;13.9;65.7
78461;SHT31;67755;51.986;5.696;2023-04-24T00:22:18;13.9;65.6
78461;SHT31;67755;51.986;5.696;2023-04-24T00:24:48;13.9;65.5
78461;SHT31;67755;51.986;5.696;2023-04-24T00:27:17;13.9;65.6
78461;SHT31;67755;51.986;5.696;2023-04-24T00:29:47;13.9;65.5
78461;SHT31;67755;51.986;5.696;2023-04-24T00:32:17;13.9;65.9
78461;SHT31;67755;51.986;5.696;2023-04-24T00:34:47;13.9;65.8
78461;SHT31;67755;51.986;5.696;2023-04-24T00:37:16;13.9;65.4
78461;SHT31;67755;51.986;5.696;2023-04-24T00:39:48;13.9;65.7
78461;SHT31;67755;51.986;5.696;2023-04-24T00:42:17;13.9;65.2
78461;SHT31;67755;51.986;5.696;2023-04-24T00:44:48;13.9;65.0
78461;SHT31;67755;51.986;5.696;2023-04-24T00:47:19;13.9;65.5
78461;SHT31;67755;51.986;5.696;2023-04-24T00:49:49;13.9;65.4
78461;SHT31;67755;51.986;5.696;2023-04-24T00:52:19;13.9;65.8
78461;SHT31;67755;51.986;5.696;2023-04-24T00:54:51;13.9;66.1
78461;SHT31;67755;51.986;5.696;2023-04-24T00:57:21;13.9;66.0
78461;SHT31;67755;51.986;5.696;2023-04-24T00:59:52;13.9;65.8
78461;SHT31;67755;51.986;5.696;2023-04-24T01:02:23;13.9;65.8
78461;SHT31;67755;51.986;5.696;2023-04-24T01:04:52;13.9;66.4
78461;SHT31;67755;51.986;5.696;2023-04-24T01:07:23;13.9;65.5
78461;SHT31;67755;51.986;5.696;2023-04-24T01:09:52;13.9;65.0
78461;SHT31;67755;51.986;5.696;2023-04-24T01:12:22;13.9;64.3
78461;SHT31;67755;51.986;5.696;2023-04-24T01:14:51;13.9;64.1
78461;SHT31;67755;51.986;5.696;2023-04-24T01:17:22;13.9;64.2
78461;SHT31;67755;51.986;5.696;2023-04-24T01:19:52;13.9;64.4
78461;SHT31;67755;51.986;5.696;2023-04-24T01:22:26;13.9;64.5
78461;SHT31;67755;51.986;5.696;2023-04-24T01:24:58;13.9;65.0
78461;SHT31;67755;51.986;5.696;2023-04-24T01:27:27;13.9;64.9
78461;SHT31;67755;51.986;5.696;2023-04-24T01:29:58;13.9;64.6
78461;SHT31;67755;51.986;5.696;2023-04-24T01:32:29;13.9;65.1
78461;SHT31;67755;51.986;5.696;2023-04-24T01:35:00;13.9;65.2
78461;SHT31;67755;51.986;5.696;2023-04-24T01:37:31;13.9;65.3
78461;SHT31;67755;51.986;5.696;2023-04-24T01:40:01;13.9;65.1
78461;SHT31;67755;51.986;5.696;2023-04-24T01:42:32;13.9;65.3
78461;SHT31;67755;51.986;5.696;2023-04-24T01:45:04;13.9;65.8
78461;SHT31;67755;51.986;5.696;2023-04-24T01:47:34;13.9;65.4
78461;SHT31;67755;51.986;5.696;2023-04-24T01:50:05;13.9;65.6
78461;SHT31;67755;51.986;5.696;2023-04-24T01:52:35;13.9;65.8
78461;SHT31;67755;51.986;5.696;2023-04-24T01:55:05;13.9;65.8
78461;SHT31;67755;51.986;5.696;2023-04-24T01:57:35;13.9;65.9
78461;SHT31;67755;51.986;5.696;2023-04-24T02:00:06;13.9;66.1
78461;SHT31;67755;51.986;5.696;2023-04-24T02:02:38;13.9;66.1
78461;SHT31;67755;51.986;5.696;2023-04-24T02:05:09;13.9;66.1
78461;SHT31;67755;51.986;5.696;2023-04-24T02:07:38;14.0;66.0
78461;SHT31;67755;51.986;5.696;2023-04-24T02:10:11;14.0;66.1
78461;SHT31;67755;51.986;5.696;2023-04-24T02:12:41;14.0;66.0
78461;SHT31;67755;51.986;5.696;2023-04-24T02:15:11;14.0;66.0
78461;SHT31;67755;51.986;5.696;2023-04-24T02:17:44;14.0;65.9
78461;SHT31;67755;51.986;5.696;2023-04-24T02:20:13;14.1;65.7
78461;SHT31;67755;51.986;5.696;2023-04-24T02:22:45;14.1;65.7
78461;SHT31;67755;51.986;5.696;2023-04-24T02:25:14;14.1;65.8
78461;SHT31;67755;51.986;5.696;2023-04-24T02:27:44;14.1;65.9
78461;SHT31;67755;51.986;5.696;2023-04-24T02:30:14;14.1;66.1
78461;SHT31;67755;51.986;5.696;2023-04-24T02:32:43;14.1;66.2
78461;SHT31;67755;51.986;5.696;2023-04-24T02:35:13;14.1;66.3
78461;SHT31;67755;51.986;5.696;2023-04-24T02:37:43;14.1;66.4
78461;SHT31;67755;51.986;5.696;2023-04-24T02:40:13;14.1;66.4
78461;SHT31;67755;51.986;5.696;2023-04-24T02:42:42;14.1;66.5
78461;SHT31;67755;51.986;5.696;2023-04-24T02:45:12;14.1;65.7
78461;SHT31;67755;51.986;5.696;2023-04-24T02:47:42;14.0;65.6
78461;SHT31;67755;51.986;5.696;2023-04-24T02:50:11;14.0;65.8
78461;SHT31;67755;51.986;5.696;2023-04-24T02:52:41;14.0;66.0
78461;SHT31;67755;51.986;5.696;2023-04-24T02:55:13;14.0;65.9
78461;SHT31;67755;51.986;5.696;2023-04-24T02:57:42;14.0;65.8
78461;SHT31;67755;51.986;5.696;2023-04-24T03:00:13;14.0;65.6
78461;SHT31;67755;51.986;5.696;2023-04-24T03:02:42;14.0;65.6
78461;SHT31;67755;51.986;5.696;2023-04-24T03:05:12;14.0;65.7
78461;SHT31;67755;51.986;5.696;2023-04-24T03:07:42;14.0;65.6
78461;SHT31;67755;51.986;5.696;2023-04-24T03:10:13;14.0;65.5
78461;SHT31;67755;51.986;5.696;2023-04-24T03:12:42;14.0;65.5
78461;SHT31;67755;51.986;5.696;2023-04-24T03:15:14;14.0;65.3
78461;SHT31;67755;51.986;5.696;2023-04-24T03:17:43;14.0;65.7
78461;SHT31;67755;51.986;5.696;2023-04-24T03:20:15;14.0;65.8
78461;SHT31;67755;51.986;5.696;2023-04-24T03:22:45;14.0;65.9
78461;SHT31;67755;51.986;5.696;2023-04-24T03:25:15;14.1;65.7
78461;SHT31;67755;51.986;5.696;2023-04-24T03:27:44;14.1;65.6
78461;SHT31;67755;51.986;5.696;2023-04-24T03:30:14;14.1;65.6
78461;SHT31;67755;51.986;5.696;2023-04-24T03:32:44;14.0;65.6
78461;SHT31;67755;51.986;5.696;2023-04-24T03:35:15;14.0;65.5
78461;SHT31;67755;51.986;5.696;2023-04-24T03:37:45;14.0;65.3
78461;SHT31;67755;51.986;5.696;2023-04-24T03:40:16;14.0;65.2
78461;SHT31;67755;51.986;5.696;2023-04-24T03:42:46;14.0;65.2
78461;SHT31;67755;51.986;5.696;2023-04-24T03:45:17;14.0;65.6
78461;SHT31;67755;51.986;5.696;2023-04-24T03:47:47;14.0;65.5
78461;SHT31;67755;51.986;5.696;2023-04-24T03:50:16;14.0;65.6
78461;SHT31;67755;51.986;5.696;2023-04-24T03:52:46;13.9;65.5
78461;SHT31;67755;51.986;5.696;2023-04-24T03:55:18;13.9;65.7
78461;SHT31;67755;51.986;5.696;2023-04-24T03:57:47;13.9;66.0
78461;SHT31;67755;51.986;5.696;2023-04-24T04:00:19;13.9;65.9
78461;SHT31;67755;51.986;5.696;2023-04-24T04:02:51;13.9;65.5
78461;SHT31;67755;51.986;5.696;2023-04-24T04:05:20;13.9;65.6
78461;SHT31;67755;51.986;5.696;2023-04-24T04:07:50;13.9;65.6
78461;SHT31;67755;51.986;5.696;2023-04-24T04:10:20;13.9;65.4
78461;SHT31;67755;51.986;5.696;2023-04-24T04:12:49;13.9;65.2
78461;SHT31;67755;51.986;5.696;2023-04-24T04:15:19;13.9;65.3
78461;SHT31;67755;51.986;5.696;2023-04-24T04:17:48;13.9;65.3
78461;SHT31;67755;51.986;5.696;2023-04-24T04:20:18;13.9;65.3
78461;SHT31;67755;51.986;5.696;2023-04-24T04:22:48;13.9;65.5
78461;SHT31;67755;51.986;5.696;2023-04-24T04:25:17;13.9;65.0
78461;SHT31;67755;51.986;5.696;2023-04-24T04:27:48;13.9;64.8
78461;SHT31;67755;51.986;5.696;2023-04-24T04:30:18;13.9;65.0
78461;SHT31;67755;51.986;5.696;2023-04-24T04:32:48;13.9;64.8
78461;SHT31;67755;51.986;5.696;2023-04-24T04:35:18;13.9;64.6
78461;SHT31;67755;51.986;5.696;2023-04-24T04:37:48;13.9;64.4
78461;SHT31;67755;51.986;5.696;2023-04-24T04:40:20;13.9;64.4
78461;SHT31;67755;51.986;5.696;2023-04-24T04:42:50;13.9;64.4
78461;SHT31;67755;51.986;5.696;2023-04-24T04:45:20;13.9;64.5
78461;SHT31;67755;51.986;5.696;2023-04-24T04:47:51;13.8;64.5
78461;SHT31;67755;51.986;5.696;2023-04-24T04:50:22;13.8;64.6
78461;SHT31;67755;51.986;5.696;2023-04-24T04:52:52;13.8;64.4
78461;SHT31;67755;51.986;5.696;2023-04-24T04:55:22;13.8;64.6
78461;SHT31;67755;51.986;5.696;2023-04-24T04:57:52;13.8;64.8
78461;SHT31;67755;51.986;5.696;2023-04-24T05:00:23;13.7;65.0
78461;SHT31;67755;51.986;5.696;2023-04-24T05:02:53;13.7;65.2
78461;SHT31;67755;51.986;5.696;2023-04-24T05:05:22;13.7;65.1
78461;SHT31;67755;51.986;5.696;2023-04-24T05:07:52;13.7;64.7
78461;SHT31;67755;51.986;5.696;2023-04-24T05:10:22;13.7;65.2
78461;SHT31;67755;51.986;5.696;2023-04-24T05:12:52;13.7;65.0
78461;SHT31;67755;51.986;5.696;2023-04-24T05:15:21;13.7;64.7
78461;SHT31;67755;51.986;5.696;2023-04-24T05:17:51;13.7;64.9
78461;SHT31;67755;51.986;5.696;2023-04-24T05:20:20;13.7;64.6
78461;SHT31;67755;51.986;5.696;2023-04-24T05:22:50;13.8;64.7
78461;SHT31;67755;51.986;5.696;2023-04-24T05:25:20;13.8;64.7
78461;SHT31;67755;51.986;5.696;2023-04-24T05:27:49;13.8;64.4
78461;SHT31;67755;51.986;5.696;2023-04-24T05:30:20;13.8;64.3
78461;SHT31;67755;51.986;5.696;2023-04-24T05:32:50;13.9;64.0
78461;SHT31;67755;51.986;5.696;2023-04-24T05:35:19;13.9;64.2
78461;SHT31;67755;51.986;5.696;2023-04-24T05:37:49;13.9;64.3
78461;SHT31;67755;51.986;5.696;2023-04-24T05:40:21;13.9;64.2
78461;SHT31;67755;51.986;5.696;2023-04-24T05:42:50;13.9;64.2
78461;SHT31;67755;51.986;5.696;2023-04-24T05:45:20;14.0;64.2
78461;SHT31;67755;51.986;5.696;2023-04-24T05:47:51;14.0;64.0
78461;SHT31;67755;51.986;5.696;2023-04-24T05:50:21;14.0;64.0
78461;SHT31;67755;51.986;5.696;2023-04-24T05:52:51;14.1;64.0
78461;SHT31;67755;51.986;5.696;2023-04-24T05:55:20;14.1;64.0
78461;SHT31;67755;51.986;5.696;2023-04-24T05:57:50;14.1;64.1
78461;SHT31;67755;51.986;5.696;2023-04-24T06:00:22;14.1;64.2
78461;SHT31;67755;51.986;5.696;2023-04-24T06:02:51;14.1;64.3
78461;SHT31;67755;51.986;5.696;2023-04-24T06:05:22;14.2;64.6
78461;SHT31;67755;51.986;5.696;2023-04-24T06:07:53;14.2;64.4
78461;SHT31;67755;51.986;5.696;2023-04-24T06:10:22;14.2;64.5
78461;SHT31;67755;51.986;5.696;2023-04-24T06:12:52;14.2;64.2
78461;SHT31;67755;51.986;5.696;2023-04-24T06:15:23;14.2;64.3
78461;SHT31;67755;51.986;5.696;2023-04-24T06:17:53;14.3;64.5
78461;SHT31;67755;51.986;5.696;2023-04-24T06:20:23;14.3;64.3
78461;SHT31;67755;51.986;5.696;2023-04-24T06:22:55;14.3;64.1
78461;SHT31;67755;51.986;5.696;2023-04-24T06:25:26;14.3;64.3
78461;SHT31;67755;51.986;5.696;2023-04-24T06:27:56;14.3;64.2
78461;SHT31;67755;51.986;5.696;2023-04-24T06:30:26;14.3;64.4
78461;SHT31;67755;51.986;5.696;2023-04-24T06:32:58;14.4;64.7
78461;SHT31;67755;51.986;5.696;2023-04-24T06:35:27;14.4;64.5
78461;SHT31;67755;51.986;5.696;2023-04-24T06:37:57;14.4;64.5
78461;SHT31;67755;51.986;5.696;2023-04-24T06:40:26;14.4;64.0
78461;SHT31;67755;51.986;5.696;2023-04-24T06:42:56;14.4;64.3
78461;SHT31;67755;51.986;5.696;2023-04-24T06:45:27;14.4;64.5
78461;SHT31;67755;51.986;5.696;2023-04-24T06:47:57;14.4;64.0
78461;SHT31;67755;51.986;5.696;2023-04-24T06:50:27;14.4;64.0
78461;SHT31;67755;51.986;5.696;2023-04-24T06:52:56;14.4;64.1
78461;SHT31;67755;51.986;5.696;2023-04-24T06:55:26;14.4;63.9
78461;SHT31;67755;51.986;5.696;2023-04-24T06:57:55;14.4;63.8
78461;SHT31;67755;51.986;5.696;2023-04-24T07:00:25;14.4;63.9
78461;SHT31;67755;51.986;5.696;2023-04-24T07:02:56;14.4;64.1
78461;SHT31;67755;51.986;5.696;2023-04-24T07:05:25;14.4;63.8
78461;SHT31;67755;51.986;5.696;2023-04-24T07:07:55;14.4;62.9
78461;SHT31;67755;51.986;5.696;2023-04-24T07:10:25;14.3;63.5
78461;SHT31;67755;51.986;5.696;2023-04-24T07:12:56;14.3;62.9
78461;SHT31;67755;51.986;5.696;2023-04-24T07:15:25;14.3;63.0
78461;SHT31;67755;51.986;5.696;2023-04-24T07:17:55;14.3;62.8
78461;SHT31;67755;51.986;5.696;2023-04-24T07:20:25;14.2;63.4
78461;SHT31;67755;51.986;5.696;2023-04-24T07:22:54;14.2;62.8
78461;SHT31;67755;51.986;5.696;2023-04-24T07:25:24;14.2;63.1
78461;SHT31;67755;51.986;5.696;2023-04-24T07:27:54;14.1;63.0
78461;SHT31;67755;51.986;5.696;2023-04-24T07:30:23;14.1;63.4
78461;SHT31;67755;51.986;5.696;2023-04-24T07:32:53;14.1;63.5
78461;SHT31;67755;51.986;5.696;2023-04-24T07:35:23;14.0;63.7
78461;SHT31;67755;51.986;5.696;2023-04-24T07:37:53;14.0;63.7
78461;SHT31;67755;51.986;5.696;2023-04-24T07:40:23;14.0;64.1
78461;SHT31;67755;51.986;5.696;2023-04-24T07:42:52;13.9;63.5
78461;SHT31;67755;51.986;5.696;2023-04-24T07:45:22;13.9;63.8
78461;SHT31;67755;51.986;5.696;2023-04-24T07:47:53;13.9;63.2
78461;SHT31;67755;51.986;5.696;2023-04-24T07:50:23;13.8;63.2
78461;SHT31;67755;51.986;5.696;2023-04-24T07:52:53;13.8;63.2
78461;SHT31;67755;51.986;5.696;2023-04-24T07:55:23;13.8;63.6
78461;SHT31;67755;51.986;5.696;2023-04-24T07:57:52;13.7;63.1
78461;SHT31;67755;51.986;5.696;2023-04-24T08:00:24;13.7;63.5
78461;SHT31;67755;51.986;5.696;2023-04-24T08:02:54;13.7;63.8
78461;SHT31;67755;51.986;5.696;2023-04-24T08:05:23;13.6;63.4
78461;SHT31;67755;51.986;5.696;2023-04-24T08:07:56;13.6;63.8
78461;SHT31;67755;51.986;5.696;2023-04-24T08:10:26;13.6;64.2
78461;SHT31;67755;51.986;5.696;2023-04-24T08:12:55;13.6;64.1
78461;SHT31;67755;51.986;5.696;2023-04-24T08:15:25;13.6;63.9
78461;SHT31;67755;51.986;5.696;2023-04-24T08:17:55;13.5;64.3
78461;SHT31;67755;51.986;5.696;2023-04-24T08:20:24;13.5;63.7
78461;SHT31;67755;51.986;5.696;2023-04-24T08:22:54;13.5;64.2
78461;SHT31;67755;51.986;5.696;2023-04-24T08:25:24;13.5;63.9
78461;SHT31;67755;51.986;5.696;2023-04-24T08:27:54;13.5;64.1
78461;SHT31;67755;51.986;5.696;2023-04-24T08:30:23;13.5;64.2
78461;SHT31;67755;51.986;5.696;2023-04-24T08:32:55;13.5;63.7
78461;SHT31;67755;51.986;5.696;2023-04-24T08:35:25;13.5;63.8
78461;SHT31;67755;51.986;5.696;2023-04-24T08:37:57;13.5;64.0
78461;SHT31;67755;51.986;5.696;2023-04-24T08:40:29;13.5;64.5
78461;SHT31;67755;51.986;5.696;2023-04-24T08:42:59;13.5;64.6
78461;SHT31;67755;51.986;5.696;2023-04-24T08:45:29;13.5;65.0
78461;SHT31;67755;51.986;5.696;2023-04-24T08:47:59;13.5;64.3
78461;SHT31;67755;51.986;5.696;2023-04-24T08:50:29;13.5;64.4
78461;SHT31;67755;51.986;5.696;2023-04-24T08:53:01;13.5;63.7
78461;SHT31;67755;51.986;5.696;2023-04-24T08:55:33;13.4;64.2
78461;SHT31;67755;51.986;5.696;2023-04-24T08:58:03;13.4;63.7
78461;SHT31;67755;51.986;5.696;2023-04-24T09:00:33;13.4;64.2
78461;SHT31;67755;51.986;5.696;2023-04-24T09:03:05;13.4;63.7
78461;SHT31;67755;51.986;5.696;2023-04-24T09:05:37;13.4;64.1
78461;SHT31;67755;51.986;5.696;2023-04-24T09:08:08;13.4;64.4
78461;SHT31;67755;51.986;5.696;2023-04-24T09:10:39;13.3;64.4
78461;SHT31;67755;51.986;5.696;2023-04-24T09:13:11;13.3;64.9
78461;SHT31;67755;51.986;5.696;2023-04-24T09:15:41;13.3;64.7
78461;SHT31;67755;51.986;5.696;2023-04-24T09:18:10;13.3;64.0
78461;SHT31;67755;51.986;5.696;2023-04-24T09:20:59;13.3;65.0
78461;SHT31;67755;51.986;5.696;2023-04-24T09:23:31;13.3;63.4
78461;SHT31;67755;51.986;5.696;2023-04-24T09:26:02;13.3;63.7
78461;SHT31;67755;51.986;5.696;2023-04-24T09:28:35;13.3;63.4
78461;SHT31;67755;51.986;5.696;2023-04-24T09:31:09;13.3;62.1
78461;SHT31;67755;51.986;5.696;2023-04-24T09:33:39;13.3;61.9
78461;SHT31;67755;51.986;5.696;2023-04-24T09:36:09;13.3;62.6
78461;SHT31;67755;51.986;5.696;2023-04-24T09:38:38;13.3;63.0
78461;SHT31;67755;51.986;5.696;2023-04-24T09:41:08;13.3;62.8
78461;SHT31;67755;51.986;5.696;2023-04-24T09:43:44;13.4;61.7
78461;SHT31;67755;51.986;5.696;2023-04-24T09:46:14;13.4;63.6
78461;SHT31;67755;51.986;5.696;2023-04-24T09:48:43;13.4;63.0
78461;SHT31;67755;51.986;5.696;2023-04-24T09:51:13;13.4;62.1
78461;SHT31;67755;51.986;5.696;2023-04-24T09:53:47;13.4;62.2
78461;SHT31;67755;51.986;5.696;2023-04-24T09:56:17;13.4;62.2
78461;SHT31;67755;51.986;5.696;2023-04-24T09:58:49;13.4;63.2
78461;SHT31;67755;51.986;5.696;2023-04-24T10:01:32;13.4;62.7
78461;SHT31;67755;51.986;5.696;2023-04-24T10:04:02;13.5;63.7
78461;SHT31;67755;51.986;5.696;2023-04-24T10:06:33;13.5;63.6
78461;SHT31;67755;51.986;5.696;2023-04-24T10:09:04;13.5;64.1
78461;SHT31;67755;51.986;5.696;2023-04-24T10:11:34;13.5;61.4
78461;SHT31;67755;51.986;5.696;2023-04-24T10:14:06;13.6;62.7
78461;SHT31;67755;51.986;5.696;2023-04-24T10:16:37;13.6;63.0
78461;SHT31;67755;51.986;5.696;2023-04-24T10:19:09;13.6;64.8
78461;SHT31;67755;51.986;5.696;2023-04-24T10:21:41;13.7;62.9
78461;SHT31;67755;51.986;5.696;2023-04-24T10:24:15;13.8;63.7
78461;SHT31;67755;51.986;5.696;2023-04-24T10:26:46;13.8;62.2
78461;SHT31;67755;51.986;5.696;2023-04-24T10:29:17;13.9;58.6
78461;SHT31;67755;51.986;5.696;2023-04-24T10:31:46;13.9;58.7
78461;SHT31;67755;51.986;5.696;2023-04-24T10:34:19;14.0;58.7
78461;SHT31;67755;51.986;5.696;2023-04-24T10:36:51;14.0;59.4
78461;SHT31;67755;51.986;5.696;2023-04-24T10:39:22;14.0;59.5
78461;SHT31;67755;51.986;5.696;2023-04-24T10:41:53;14.1;57.5
78461;SHT31;67755;51.986;5.696;2023-04-24T10:44:27;14.1;57.2
78461;SHT31;67755;51.986;5.696;2023-04-24T10:47:01;14.1;57.5
78461;SHT31;67755;51.986;5.696;2023-04-24T10:49:32;14.1;57.7
78461;SHT31;67755;51.986;5.696;2023-04-24T10:52:03;14.2;55.7
78461;SHT31;67755;51.986;5.696;2023-04-24T10:54:41;14.2;57.7
78461;SHT31;67755;51.986;5.696;2023-04-24T10:57:29;14.2;56.9
78461;SHT31;67755;51.986;5.696;2023-04-24T11:00:14;14.1;57.3
78461;SHT31;67755;51.986;5.696;2023-04-24T11:02:46;14.1;55.7
78461;SHT31;67755;51.986;5.696;2023-04-24T11:05:19;14.1;57.0
78461;SHT31;67755;51.986;5.696;2023-04-24T11:08:11;14.1;56.6
78461;SHT31;67755;51.986;5.696;2023-04-24T11:10:46;14.1;57.4
78461;SHT31;67755;51.986;5.696;2023-04-24T11:13:17;14.1;57.0
78461;SHT31;67755;51.986;5.696;2023-04-24T11:16:16;14.1;57.2
78461;SHT31;67755;51.986;5.696;2023-04-24T11:18:59;14.1;57.2
78461;SHT31;67755;51.986;5.696;2023-04-24T11:21:38;14.2;57.5
78461;SHT31;67755;51.986;5.696;2023-04-24T11:24:27;14.2;56.8
78461;SHT31;67755;51.986;5.696;2023-04-24T11:26:58;14.2;57.0
78461;SHT31;67755;51.986;5.696;2023-04-24T11:29:42;14.3;57.8
78461;SHT31;67755;51.986;5.696;2023-04-24T11:32:17;14.3;55.8
78461;SHT31;67755;51.986;5.696;2023-04-24T11:34:52;14.3;55.5
78461;SHT31;67755;51.986;5.696;2023-04-24T11:37:22;14.4;56.0
78461;SHT31;67755;51.986;5.696;2023-04-24T11:39:55;14.4;55.5
78461;SHT31;67755;51.986;5.696;2023-04-24T11:42:25;14.5;55.5
78461;SHT31;67755;51.986;5.696;2023-04-24T11:44:55;14.5;54.6
78461;SHT31;67755;51.986;5.696;2023-04-24T11:47:32;14.5;55.7
78461;SHT31;67755;51.986;5.696;2023-04-24T11:50:04;14.6;55.3
78461;SHT31;67755;51.986;5.696;2023-04-24T11:52:37;14.6;54.3
78461;SHT31;67755;51.986;5.696;2023-04-24T11:55:25;14.6;55.0
78461;SHT31;67755;51.986;5.696;2023-04-24T11:57:56;14.6;56.2
78461;SHT31;67755;51.986;5.696;2023-04-24T12:00:28;14.5;56.9
78461;SHT31;67755;51.986;5.696;2023-04-24T12:03:08;14.5;57.1
78461;SHT31;67755;51.986;5.696;2023-04-24T12:05:39;14.5;57.3
78461;SHT31;67755;51.986;5.696;2023-04-24T12:08:09;14.5;56.9
78461;SHT31;67755;51.986;5.696;2023-04-24T12:10:38;14.5;57.6
78461;SHT31;67755;51.986;5.696;2023-04-24T12:13:11;14.4;56.5
78461;SHT31;67755;51.986;5.696;2023-04-24T12:15:43;14.4;55.8
78461;SHT31;67755;51.986;5.696;2023-04-24T12:18:13;14.4;56.8
78461;SHT31;67755;51.986;5.696;2023-04-24T12:20:46;14.4;57.1
78461;SHT31;67755;51.986;5.696;2023-04-24T12:23:16;14.4;57.2
78461;SHT31;67755;51.986;5.696;2023-04-24T12:25:46;14.4;57.6
78461;SHT31;67755;51.986;5.696;2023-04-24T12:28:16;14.4;57.5
78461;SHT31;67755;51.986;5.696;2023-04-24T12:30:47;14.4;56.9
78461;SHT31;67755;51.986;5.696;2023-04-24T12:33:20;14.4;56.0
78461;SHT31;67755;51.986;5.696;2023-04-24T12:35:52;14.4;55.2
78461;SHT31;67755;51.986;5.696;2023-04-24T12:38:25;14.5;53.8
78461;SHT31;67755;51.986;5.696;2023-04-24T12:41:04;14.5;53.5
78461;SHT31;67755;51.986;5.696;2023-04-24T12:43:34;14.5;53.8
78461;SHT31;67755;51.986;5.696;2023-04-24T12:46:05;14.5;53.7
78461;SHT31;67755;51.986;5.696;2023-04-24T12:48:34;14.5;55.0
78461;SHT31;67755;51.986;5.696;2023-04-24T12:51:04;14.5;55.0
78461;SHT31;67755;51.986;5.696;2023-04-24T12:53:34;14.5;54.1
78461;SHT31;67755;51.986;5.696;2023-04-24T12:56:04;14.5;55.2
78461;SHT31;67755;51.986;5.696;2023-04-24T12:58:33;14.5;55.2
78461;SHT31;67755;51.986;5.696;2023-04-24T13:01:03;14.5;55.6
78461;SHT31;67755;51.986;5.696;2023-04-24T13:03:33;14.5;53.5
78461;SHT31;67755;51.986;5.696;2023-04-24T13:06:02;14.5;54.0
78461;SHT31;67755;51.986;5.696;2023-04-24T13:08:32;14.6;54.0
78461;SHT31;67755;51.986;5.696;2023-04-24T13:11:01;14.6;54.5
78461;SHT31;67755;51.986;5.696;2023-04-24T13:13:31;14.6;52.2
78461;SHT31;67755;51.986;5.696;2023-04-24T13:16:01;14.6;51.9
78461;SHT31;67755;51.986;5.696;2023-04-24T13:18:30;14.6;52.0
78461;SHT31;67755;51.986;5.696;2023-04-24T13:21:00;14.5;52.2
78461;SHT31;67755;51.986;5.696;2023-04-24T13:23:29;14.5;53.3
78461;SHT31;67755;51.986;5.696;2023-04-24T13:25:59;14.5;53.2
78461;SHT31;67755;51.986;5.696;2023-04-24T13:28:31;14.5;52.9
78461;SHT31;67755;51.986;5.696;2023-04-24T13:31:01;14.5;52.8
78461;SHT31;67755;51.986;5.696;2023-04-24T13:33:30;14.5;53.5
78461;SHT31;67755;51.986;5.696;2023-04-24T13:36:00;14.5;52.5
78461;SHT31;67755;51.986;5.696;2023-04-24T13:38:29;14.5;52.3
78461;SHT31;67755;51.986;5.696;2023-04-24T13:40:59;14.5;52.8
78461;SHT31;67755;51.986;5.696;2023-04-24T13:43:29;14.5;53.3
78461;SHT31;67755;51.986;5.696;2023-04-24T13:45:59;14.5;54.2
78461;SHT31;67755;51.986;5.696;2023-04-24T13:48:30;14.5;53.2
78461;SHT31;67755;51.986;5.696;2023-04-24T13:51:00;14.5;52.4
78461;SHT31;67755;51.986;5.696;2023-04-24T13:53:29;14.6;51.8
78461;SHT31;67755;51.986;5.696;2023-04-24T13:56:00;14.6;49.5
78461;SHT31;67755;51.986;5.696;2023-04-24T13:58:31;14.6;49.0
78461;SHT31;67755;51.986;5.696;2023-04-24T14:01:01;14.7;50.3
78461;SHT31;67755;51.986;5.696;2023-04-24T14:03:33;14.7;50.5
78461;SHT31;67755;51.986;5.696;2023-04-24T14:06:03;14.7;49.5
78461;SHT31;67755;51.986;5.696;2023-04-24T14:08:33;14.8;50.8
78461;SHT31;67755;51.986;5.696;2023-04-24T14:11:03;14.8;50.8
78461;SHT31;67755;51.986;5.696;2023-04-24T14:13:33;14.8;51.7
78461;SHT31;67755;51.986;5.696;2023-04-24T14:16:04;14.9;49.6
78461;SHT31;67755;51.986;5.696;2023-04-24T14:18:33;14.9;49.5
78461;SHT31;67755;51.986;5.696;2023-04-24T14:21:04;15.0;48.5
78461;SHT31;67755;51.986;5.696;2023-04-24T14:23:33;15.1;47.2
78461;SHT31;67755;51.986;5.696;2023-04-24T14:26:03;15.1;45.8
78461;SHT31;67755;51.986;5.696;2023-04-24T14:28:34;15.1;47.4
78461;SHT31;67755;51.986;5.696;2023-04-24T14:31:04;15.2;46.9
78461;SHT31;67755;51.986;5.696;2023-04-24T14:33:35;15.2;47.7
78461;SHT31;67755;51.986;5.696;2023-04-24T14:36:05;15.2;48.4
78461;SHT31;67755;51.986;5.696;2023-04-24T14:38:35;15.2;46.6
78461;SHT31;67755;51.986;5.696;2023-04-24T14:41:04;15.2;47.4
78461;SHT31;67755;51.986;5.696;2023-04-24T14:43:37;15.2;48.3
78461;SHT31;67755;51.986;5.696;2023-04-24T14:46:06;15.2;47.6
78461;SHT31;67755;51.986;5.696;2023-04-24T14:48:36;15.3;47.5
78461;SHT31;67755;51.986;5.696;2023-04-24T14:51:06;15.3;46.9
78461;SHT31;67755;51.986;5.696;2023-04-24T14:53:35;15.3;45.2
78461;SHT31;67755;51.986;5.696;2023-04-24T14:56:05;15.3;44.7
78461;SHT31;67755;51.986;5.696;2023-04-24T14:58:35;15.3;46.2
78461;SHT31;67755;51.986;5.696;2023-04-24T15:01:05;15.3;44.4
78461;SHT31;67755;51.986;5.696;2023-04-24T15:03:34;15.2;44.7
78461;SHT31;67755;51.986;5.696;2023-04-24T15:06:04;15.2;45.5
78461;SHT31;67755;51.986;5.696;2023-04-24T15:08:34;15.2;45.9
78461;SHT31;67755;51.986;5.696;2023-04-24T15:11:04;15.1;46.0
78461;SHT31;67755;51.986;5.696;2023-04-24T15:13:35;15.1;46.1
78461;SHT31;67755;51.986;5.696;2023-04-24T15:16:05;15.1;47.1
78461;SHT31;67755;51.986;5.696;2023-04-24T15:18:35;15.0;46.0
78461;SHT31;67755;51.986;5.696;2023-04-24T15:21:07;15.0;46.0
78461;SHT31;67755;51.986;5.696;2023-04-24T15:23:39;14.9;45.0
78461;SHT31;67755;51.986;5.696;2023-04-24T15:26:08;14.9;45.4
78461;SHT31;67755;51.986;5.696;2023-04-24T15:28:38;14.9;46.1
78461;SHT31;67755;51.986;5.696;2023-04-24T15:31:07;14.8;47.4
78461;SHT31;67755;51.986;5.696;2023-04-24T15:33:37;14.8;48.5
78461;SHT31;67755;51.986;5.696;2023-04-24T15:36:07;14.8;48.7
78461;SHT31;67755;51.986;5.696;2023-04-24T15:38:37;14.8;48.2
78461;SHT31;67755;51.986;5.696;2023-04-24T15:41:07;14.8;48.7
78461;SHT31;67755;51.986;5.696;2023-04-24T15:43:36;14.8;48.6
78461;SHT31;67755;51.986;5.696;2023-04-24T15:46:09;14.7;49.7
78461;SHT31;67755;51.986;5.696;2023-04-24T15:48:39;14.7;47.4
78461;SHT31;67755;51.986;5.696;2023-04-24T15:51:11;14.7;47.1
78461;SHT31;67755;51.986;5.696;2023-04-24T15:53:40;14.7;48.0
78461;SHT31;67755;51.986;5.696;2023-04-24T15:56:10;14.7;48.6
78461;SHT31;67755;51.986;5.696;2023-04-24T15:58:40;14.7;47.2
78461;SHT31;67755;51.986;5.696;2023-04-24T16:01:12;14.7;48.8
78461;SHT31;67755;51.986;5.696;2023-04-24T16:03:42;14.7;48.5
78461;SHT31;67755;51.986;5.696;2023-04-24T16:06:13;14.8;48.9
78461;SHT31;67755;51.986;5.696;2023-04-24T16:08:42;14.8;50.1
78461;SHT31;67755;51.986;5.696;2023-04-24T16:11:12;14.8;49.3
78461;SHT31;67755;51.986;5.696;2023-04-24T16:13:42;14.8;50.5
78461;SHT31;67755;51.986;5.696;2023-04-24T16:16:12;14.8;50.6
78461;SHT31;67755;51.986;5.696;2023-04-24T16:18:42;14.8;49.4
78461;SHT31;67755;51.986;5.696;2023-04-24T16:21:11;14.8;47.5
78461;SHT31;67755;51.986;5.696;2023-04-24T16:23:41;14.8;46.9
78461;SHT31;67755;51.986;5.696;2023-04-24T16:26:10;14.7;46.8